• Join FlightAware (Why Join?)
  • Login
  • US Flag 
02:22AM EDT


 

Airport Tracker/Info


-or-


 

Live Flight TrackerFlight Track Log ✈ N719SF ✈ 01-May-2013 ✈ MYNN / NAS - KOPF

Flight Track Log - Related Links

Times and Time Zones

All times are in EDT time to prevent confusion due to time zone crossing. See the N719SF flight status page for this flight to view local times or setup timezone preferences in your user account.

Time Position Orientation Groundspeed Altitude Reporting Facility
EDT Latitude Longitude Course Direction KTS MPH feet Rate Location/Type
07:18PM 24.9967 -77.4183 172° South 169 194 1,800  Level Miami Center
07:19PM 24.9653 -77.4136 172° South 128 147 2,600 720 Climbing Miami Center
07:20PM 24.9297 -77.4456 219° Southwest 128 147 3,300 660 Climbing Miami Center
07:21PM 24.9358 -77.4892 279° West 112 129 4,000 720 Climbing Miami Center
07:22PM 24.9650 -77.5236 313° West 125 144 4,800 780 Climbing Miami Center
07:23PM 25.0003 -77.5558 320° Northwest 138 159 5,600 660 Climbing Miami Center
07:24PM 25.0356 -77.5836 324° Northwest 151 174 6,200 600 Climbing Miami Center
07:25PM 25.0794 -77.6000 341° North 156 180 6,900 720 Climbing Miami Center
07:26PM 25.1211 -77.6186 338° Northwest 156 180 7,700 540 Climbing Miami Center
07:27PM 25.1628 -77.6372 338° Northwest 156 180 8,000 120 Climbing Miami Center
07:28PM 25.1939 -77.6764 311° West 161 185 8,000  Level Miami Center
07:29PM 25.2250 -77.7156 311° West 161 185 8,100  Climbing Miami Center
07:30PM 25.2564 -77.7503 315° West 166 191 8,000 -60 Descending Miami Center
07:31PM 25.2894 -77.7897 313° West 166 191 8,000  Level Miami Center
07:32PM 25.3206 -77.8289 311° West 166 191 8,000  Level Miami Center
07:33PM 25.3517 -77.8661 313° West 166 191 8,000  Level Miami Center
07:34PM 25.3744 -77.9122 299° West 166 191 8,000  Level Miami Center
07:35PM 25.3886 -77.9583 289° West 160 184 8,000  Level Miami Center
07:36PM 25.4028 -78.0067 288° West 165 190 8,000  Level Miami Center
07:37PM 25.4192 -78.0575 290° West 170 196 8,000  Level Miami Center
07:38PM 25.4333 -78.1061 288° West 170 196 8,000  Level Miami Center
07:39PM 25.4478 -78.1544 288° West 164 189 8,000  Level Miami Center
07:40PM 25.4597 -78.2053 285° West 164 189 8,000  Level Miami Center
07:41PM 25.4781 -78.2492 295° West 164 189 8,000 -60 Level Miami Center
07:42PM 25.4881 -78.3022 282° West 169 194 7,900  Descending Miami Center
07:43PM 25.5044 -78.3486 291° West 164 189 8,000  Climbing Miami Center
07:44PM 25.5164 -78.3994 285° West 164 189 8,000  Level Miami Center
07:45PM 25.5306 -78.4478 288° West 164 189 8,100  Climbing Miami Center
07:46PM 25.5489 -78.4942 294° West 169 194 8,000 -60 Descending Miami Center
07:47PM 25.5586 -78.5472 281° West 169 194 8,000  Level Miami Center
07:48PM 25.5728 -78.5958 288° West 169 194 8,000  Level Miami Center
07:49PM 25.5867 -78.6467 287° West 164 189 8,000  Level Miami Center
07:50PM 25.6050 -78.6931 294° West 164 189 8,000  Level Miami Center
07:51PM 25.6169 -78.7417 285° West 164 189 8,000  Level Miami Center
07:52PM 25.6289 -78.7811 289° West 164 189 8,000  Level Miami Center
07:53PM 25.6469 -78.8389 289° West 164 189 8,000  Level Miami Center
07:54PM 25.6544 -78.8944 279° West 164 189 8,000  Level Miami Center
07:55PM 25.6728 -78.9408 294° West 164 189 8,000  Level Miami Center
07:56PM 25.6886 -78.9894 290° West 164 189 8,000  Level Miami Center
07:57PM 25.7067 -79.0383 292° West 169 194 8,000 -300 Level Miami Center
07:58PM 25.7164 -79.0939 281° West 169 194 7,500 -540 Descending Miami Center
07:59PM 25.7364 -79.1472 293° West 169 194 7,000 -540 Descending Miami Center
08:00PM 25.7522 -79.2006 288° West 179 206 6,500 -600 Descending Miami Center
08:01PM 25.7600 -79.2514 280° West 184 212 5,900 -540 Descending Miami Center
08:02PM 25.7756 -79.3142 285° West 184 212 5,500 -540 Descending Miami Center
08:03PM 25.7914 -79.3653 289° West 184 212 4,900 -600 Descending Miami Center
08:04PM 25.8072 -79.4256 286° West 189 217 4,400 -420 Descending Miami Center
08:05PM 25.8167 -79.4764 282° West 189 217 4,100 -300 Descending Miami Center
08:05PM 25.8244 -79.5089 285° West 184 212 4,000 -120 Descending Miami Center
08:06PM 25.8281 -79.5344 279° West 184 212 4,000  Level Miami Center
08:06PM 25.8342 -79.5508 293° West 176 203 4,000  Level Miami Center
08:07PM 25.8478 -79.6042 286° West 176 203 4,000  Level Miami Center
08:08PM 25.8597 -79.6389 291° West 184 212 4,000  Level Miami Center
08:08PM 25.8550 -79.6575 254° West 174 200 4,000 -240 Level Miami Center
08:09PM 25.8608 -79.6897 281° West 179 206 3,800 -420 Descending Miami Center
08:09PM 25.8583 -79.7128 263° West 178 205 3,600 -600 Descending Miami Center
08:10PM 25.8658 -79.7478 283° West 179 206 3,200 -540 Descending Miami Center
08:10PM 25.8633 -79.7708 263° West 192 221 3,100 -240 Descending Miami Center
08:11PM 25.8689 -79.8056 280° West 184 212 3,000 -120 Descending Miami Center
08:11PM 25.8683 -79.8286 268° West 183 211 3,000  Level Miami Center
08:12PM 25.8719 -79.8611 277° West 184 212 3,000  Level Miami Center
08:12PM 25.8736 -79.8842 275° West 173 199 3,000 -240 Level Miami Center
08:13PM 25.8792 -79.9119 283° West 179 206 2,800 -480 Descending Miami Center
08:13PM 25.8767 -79.9350 263° West 176 203 2,600 -540 Descending Miami Center
08:14PM 25.8800 -79.9697 276° West 179 206 2,300 -480 Descending Miami Center
08:14PM 25.8794 -79.9997 269° West 190 219 2,100 -420 Descending Miami Center
08:15PM 25.8872 -80.0275 287° West 184 212 1,900 -120 Descending Miami Center
08:15PM 25.8908 -80.0556 278° West 174 200 2,000 60 Climbing Miami Center
08:17PM 25.9042 -80.1111 285° West 175 201 2,000  Level Miami Center
08:18PM 25.9239 -80.1603 294° West 164 189 2,000 -180 Level Miami Center
08:19PM 25.9333 -80.2136 281° West 150 173 1,700 -300 Descending Miami Center
08:20PM 25.9364 -80.2575 274° West 144 166 1,400 -420 Descending Miami Center
08:21PM 25.9375 -80.2947 272° West 132 152 1,000 -480 Descending Miami Center
08:22PM 25.9122 -80.3100 209° Southwest 130 150 600 -420 Descending Miami Center
08:24PM 25.9074 -80.2782 90° East  Level Estimated